logo
Rechercher aéroport 
image banner adimage banner adimage banner ad
image banner ad

EI0030 - Limerick Sarsfield Barracks

Situé à Limerick, Ireland

ICAO - , IATA -

Données fournies par Airmate  

Information générale

Coordonnées: N52°39'18" W8°37'51"
Élévation : 76 feet MSL.
Variation magnétique : -2° East
Voir autres Aéroports à County Limerick

Données opérationnelles

Special qualification required
Heure actuelle UTC:
Heure actuelle locale:
Météo à : EINN - Shannon ( 20 km )
METAR: EINN 230400Z 31004KT 9999 BCMIFG FEW015 SCT030 13/12 Q1018 NOSIG
TAF: TAF EINN 222300Z 2300/2324 29006KT 9999 SCT010 BKN020 TEMPO 2300/2308 4000 -DZ BKN010 PROB30 TEMPO 2300/2307 2500 BR BKN006
Voir NOTAMs / SUP AIP / TFR affectant cet aéroport [VIEW]
Fréquences de communication: [VIEW]

Pistes:

Coordonnées de l'aéroport

Adresse: Limerick Ireland

Vue satellite de EI0030